LIEE/CAG METAR and TAF weather

Enter ICAO airport designator
Station Type Date Time Source
LIEE METAR 2019/08/18 08:50 UTC NOAA

LIEE 180850Z 15009KT CAVOK 28/21 Q1016


Station Type Date Time Source
LIEE Decoded METAR 2019/08/18 08:50 UTC NOAA

Station name not available
Aug 18, 2019 - 04:50 AM EDT / 2019.08.18 0850 UTC
Wind: from the SSE (150 degrees) at 10 MPH (9 KT):0
Visibility: greater than 7 mile(s):0
Temperature: 82 F (28 C)
Dew Point: 69 F (21 C)
Relative Humidity: 65%
Pressure (altimeter): 30.00 in. Hg (1016 hPa)
ob: LIEE 180850Z 15009KT CAVOK 28/21 Q1016
cycle: 9

Station Type Date Time Source
LIEE TAF 2019/08/18 06:21 UTC NOAA

TAF LIEE 180500Z 1806/1906 VRB05KT CAVOK
BECMG 1808/1810 16012KT
BECMG 1818/1820 VRB05KT

Example: see airport list